createdAt,value
2022-07-26T00:00:22.515Z,28.60
2022-07-26T00:02:54.603Z,28.50
2022-07-26T00:05:26.764Z,28.60
2022-07-26T00:08:10.816Z,28.50
2022-07-26T00:10:48.818Z,28.40
2022-07-26T00:13:21.577Z,28.30
2022-07-26T00:15:53.890Z,28.20
2022-07-26T00:18:26.050Z,28.20
2022-07-26T00:20:58.108Z,28.20
2022-07-26T00:23:30.058Z,28.10
2022-07-26T00:26:02.024Z,27.90
2022-07-26T00:28:34.014Z,27.80
2022-07-26T00:31:06.279Z,27.70
2022-07-26T00:33:38.216Z,27.70
2022-07-26T00:36:10.244Z,27.70
2022-07-26T00:38:42.357Z,27.70
2022-07-26T00:41:14.242Z,27.90
2022-07-26T00:43:57.045Z,27.80
2022-07-26T00:46:29.051Z,27.90
2022-07-26T00:49:01.072Z,27.80
2022-07-26T00:51:33.102Z,27.80
2022-07-26T00:54:05.995Z,27.80
2022-07-26T00:56:38.975Z,27.80
2022-07-26T00:59:11.348Z,27.80
2022-07-26T01:01:43.657Z,27.80
2022-07-26T01:04:15.940Z,27.70
2022-07-26T01:06:49.400Z,27.60
2022-07-26T01:09:21.402Z,27.50
2022-07-26T01:11:53.478Z,27.50
2022-07-26T01:14:25.917Z,27.50
2022-07-26T01:16:58.021Z,27.50
2022-07-26T01:19:30.100Z,27.40
2022-07-26T01:22:02.083Z,27.30
2022-07-26T01:24:34.157Z,27.20
2022-07-26T01:27:06.280Z,27.10
2022-07-26T01:29:38.836Z,27.10
2022-07-26T01:32:10.860Z,27.10
2022-07-26T01:34:42.781Z,27.10
2022-07-26T01:37:14.776Z,27.10
2022-07-26T01:39:46.824Z,27.10
2022-07-26T01:42:18.688Z,27.00
2022-07-26T01:44:50.718Z,27.00
2022-07-26T01:47:22.687Z,27.00
2022-07-26T01:49:54.630Z,27.00
2022-07-26T01:52:27.631Z,27.00
2022-07-26T01:54:59.581Z,27.00
2022-07-26T01:57:31.549Z,27.00
2022-07-26T02:00:06.169Z,26.90
2022-07-26T02:02:39.253Z,26.80
2022-07-26T02:05:12.591Z,26.90
2022-07-26T02:07:45.011Z,26.80
2022-07-26T02:10:17.158Z,26.70
2022-07-26T02:12:49.794Z,26.80
2022-07-26T02:15:21.782Z,26.80
2022-07-26T02:17:53.687Z,26.90
2022-07-26T02:20:25.639Z,26.90
2022-07-26T02:22:57.572Z,26.80
2022-07-26T02:25:30.064Z,26.60
2022-07-26T02:28:02.096Z,26.50
2022-07-26T02:30:34.212Z,26.30
2022-07-26T02:33:06.338Z,26.20
2022-07-26T02:35:38.367Z,26.20
2022-07-26T02:38:13.611Z,26.10
2022-07-26T02:40:45.528Z,26.00
2022-07-26T02:43:17.349Z,26.00
2022-07-26T02:46:01.333Z,26.00
2022-07-26T02:48:33.939Z,25.90
2022-07-26T02:51:06.029Z,25.80
2022-07-26T02:53:37.929Z,25.80
2022-07-26T02:56:10.420Z,25.90
2022-07-26T02:58:42.420Z,25.90
2022-07-26T03:01:14.356Z,25.90
2022-07-26T03:03:50.548Z,26.00
2022-07-26T03:06:23.244Z,26.00
2022-07-26T03:08:55.116Z,25.80
2022-07-26T03:11:27.033Z,25.80
2022-07-26T03:13:58.922Z,25.70
2022-07-26T03:16:31.213Z,25.80
2022-07-26T03:19:03.211Z,25.80
2022-07-26T03:21:35.097Z,25.80
2022-07-26T03:24:07.508Z,25.70
2022-07-26T03:26:39.621Z,25.70
2022-07-26T03:29:11.542Z,25.60
2022-07-26T03:31:43.501Z,25.60
2022-07-26T03:34:15.439Z,25.50
2022-07-26T03:36:47.366Z,25.40
2022-07-26T03:39:19.334Z,25.40
2022-07-26T03:41:51.270Z,25.40
2022-07-26T03:44:23.126Z,25.40
2022-07-26T03:46:55.053Z,25.40
2022-07-26T03:49:27.951Z,25.40
2022-07-26T03:52:00.000Z,25.40
2022-07-26T03:54:31.896Z,25.40
2022-07-26T03:57:03.807Z,25.50
2022-07-26T03:59:35.895Z,25.60
2022-07-26T04:02:07.811Z,25.60
2022-07-26T04:04:39.686Z,25.50
2022-07-26T04:07:11.684Z,25.40
2022-07-26T04:09:44.595Z,25.50
2022-07-26T04:12:16.485Z,25.60
2022-07-26T04:14:48.411Z,25.80
2022-07-26T04:17:20.315Z,26.10
2022-07-26T04:19:52.240Z,26.10
2022-07-26T04:22:24.103Z,26.10
2022-07-26T04:24:56.048Z,26.10
2022-07-26T04:27:28.160Z,26.10
2022-07-26T04:30:00.736Z,26.10
2022-07-26T04:32:32.793Z,26.10
2022-07-26T04:35:05.053Z,26.20
2022-07-26T04:37:41.352Z,26.30
2022-07-26T04:40:21.394Z,26.40
2022-07-26T04:42:55.321Z,26.50
2022-07-26T04:45:27.682Z,26.60
2022-07-26T04:47:59.573Z,26.60
2022-07-26T04:50:31.561Z,26.60
2022-07-26T04:53:03.612Z,26.70
2022-07-26T04:55:35.656Z,26.70
2022-07-26T04:58:07.958Z,26.90
2022-07-26T05:01:09.136Z,27.00
2022-07-26T05:03:31.846Z,27.00
2022-07-26T05:06:03.808Z,27.00
2022-07-26T05:08:35.682Z,27.20
2022-07-26T05:11:07.787Z,27.40
2022-07-26T05:13:39.667Z,27.60
2022-07-26T05:16:12.219Z,27.70
2022-07-26T05:18:48.776Z,27.90
2022-07-26T05:21:21.588Z,28.30
2022-07-26T05:23:54.164Z,28.60
2022-07-26T05:26:26.119Z,28.80
2022-07-26T05:28:59.090Z,29.00
2022-07-26T05:31:30.978Z,29.10
2022-07-26T05:34:03.732Z,29.40
2022-07-26T05:36:35.677Z,29.80
2022-07-26T05:39:08.944Z,30.20
2022-07-26T05:41:43.643Z,30.40
2022-07-26T05:44:15.623Z,30.70
2022-07-26T05:46:47.491Z,30.60
2022-07-26T05:49:19.395Z,30.70
2022-07-26T05:51:51.636Z,30.80
2022-07-26T05:54:23.517Z,30.80
2022-07-26T05:56:55.417Z,30.70
2022-07-26T05:59:27.423Z,30.60
2022-07-26T06:01:59.443Z,30.50
2022-07-26T06:04:31.503Z,30.40
2022-07-26T06:07:03.544Z,30.30
2022-07-26T06:09:35.470Z,30.50
2022-07-26T06:12:07.535Z,30.60
2022-07-26T06:14:39.545Z,30.70
2022-07-26T06:17:11.916Z,30.90
2022-07-26T06:19:47.587Z,31.20
2022-07-26T06:22:19.878Z,31.20
2022-07-26T06:24:51.941Z,31.10
2022-07-26T06:27:23.759Z,30.80
2022-07-26T06:29:55.601Z,31.00
2022-07-26T06:32:27.535Z,30.90
2022-07-26T06:34:59.467Z,30.70
2022-07-26T06:37:31.405Z,30.80
2022-07-26T06:40:04.004Z,30.90
2022-07-26T06:42:36.649Z,30.90
2022-07-26T06:45:09.466Z,31.10
2022-07-26T06:47:41.393Z,31.10
2022-07-26T06:50:13.391Z,31.30
2022-07-26T06:52:47.976Z,31.30
2022-07-26T06:55:19.997Z,31.70
2022-07-26T06:57:52.303Z,31.70
2022-07-26T07:00:24.233Z,31.80
2022-07-26T07:02:56.139Z,32.20
2022-07-26T07:05:31.170Z,32.40
2022-07-26T07:08:03.466Z,32.20
2022-07-26T07:10:35.432Z,32.10
2022-07-26T07:13:08.065Z,32.50
2022-07-26T07:15:40.022Z,32.40
2022-07-26T07:18:12.077Z,32.60
2022-07-26T07:20:43.990Z,32.90
2022-07-26T07:23:15.954Z,33.70
2022-07-26T07:25:47.861Z,34.30
2022-07-26T07:28:20.955Z,34.70
2022-07-26T07:30:55.617Z,35.20
2022-07-26T07:33:32.143Z,35.20
2022-07-26T07:36:15.492Z,34.90
2022-07-26T07:38:49.132Z,34.20
2022-07-26T07:41:21.304Z,34.50
2022-07-26T07:43:53.233Z,34.70
2022-07-26T07:46:25.186Z,34.60
2022-07-26T07:48:59.447Z,33.80
2022-07-26T07:51:32.354Z,33.10
2022-07-26T07:54:05.886Z,33.10
2022-07-26T07:56:38.052Z,33.40
2022-07-26T07:59:10.389Z,33.30
2022-07-26T08:01:42.654Z,33.70
2022-07-26T08:04:17.187Z,33.80
2022-07-26T08:06:51.374Z,33.50
2022-07-26T08:09:23.512Z,33.50
2022-07-26T08:11:55.512Z,33.20
2022-07-26T08:14:27.352Z,33.50
2022-07-26T08:16:59.297Z,33.30
2022-07-26T08:19:42.203Z,33.10
2022-07-26T08:22:14.562Z,33.60
2022-07-26T08:24:46.938Z,33.40
2022-07-26T08:27:18.948Z,33.70
2022-07-26T08:29:50.834Z,34.20
2022-07-26T08:32:22.767Z,34.50
2022-07-26T08:34:54.731Z,34.40
2022-07-26T08:37:47.042Z,34.40
2022-07-26T08:40:18.975Z,34.00
2022-07-26T08:42:52.943Z,34.20
2022-07-26T08:45:29.485Z,34.00
2022-07-26T08:48:18.354Z,33.80
2022-07-26T08:50:51.288Z,33.90
2022-07-26T08:53:23.425Z,34.00
2022-07-26T08:56:06.761Z,34.00
2022-07-26T08:58:40.816Z,34.40
2022-07-26T09:01:13.489Z,35.00
2022-07-26T09:03:45.937Z,35.50
2022-07-26T09:06:22.761Z,36.10
2022-07-26T09:09:11.583Z,36.10
2022-07-26T09:11:43.642Z,35.30
2022-07-26T09:14:15.643Z,35.30
2022-07-26T09:16:58.869Z,35.80
2022-07-26T09:19:30.736Z,36.40
2022-07-26T09:22:14.060Z,36.60
2022-07-26T09:24:48.112Z,35.80
2022-07-26T09:27:20.157Z,35.40
2022-07-26T09:29:54.369Z,35.50
2022-07-26T09:32:26.887Z,35.60
2022-07-26T09:35:45.452Z,35.70
2022-07-26T09:38:15.838Z,35.30
2022-07-26T09:40:50.955Z,35.40
2022-07-26T09:43:23.855Z,35.70
2022-07-26T09:46:05.468Z,35.40
2022-07-26T09:49:09.563Z,34.50
2022-07-26T09:51:43.579Z,34.40
2022-07-26T09:54:30.400Z,34.90
2022-07-26T09:57:02.863Z,35.10
2022-07-26T09:59:34.716Z,35.10
2022-07-26T10:02:06.765Z,34.80
2022-07-26T10:04:38.764Z,34.90
2022-07-26T10:07:11.100Z,34.60
2022-07-26T10:09:49.606Z,34.60
2022-07-26T10:12:27.235Z,35.00
2022-07-26T10:15:02.446Z,35.20
2022-07-26T10:17:42.564Z,35.40
2022-07-26T10:20:43.881Z,35.20
2022-07-26T10:23:36.138Z,34.70
2022-07-26T10:26:11.804Z,34.70
2022-07-26T10:28:44.008Z,34.90
2022-07-26T10:31:29.901Z,35.10
2022-07-26T10:34:01.975Z,34.90
2022-07-26T10:36:39.583Z,34.60
2022-07-26T10:39:14.808Z,34.90
2022-07-26T10:41:56.909Z,35.20
2022-07-26T10:44:33.922Z,34.90
2022-07-26T10:47:08.623Z,34.20
2022-07-26T10:49:43.176Z,33.90
2022-07-26T10:52:18.479Z,34.00
2022-07-26T10:54:59.346Z,34.00
2022-07-26T10:57:35.687Z,34.10
2022-07-26T11:00:11.040Z,34.10
2022-07-26T11:02:47.267Z,34.00
2022-07-26T11:05:19.584Z,33.90
2022-07-26T11:08:10.630Z,34.20
2022-07-26T11:10:47.433Z,34.70
2022-07-26T11:13:25.844Z,35.20
2022-07-26T11:16:04.774Z,35.30
2022-07-26T11:18:38.686Z,35.10
2022-07-26T11:21:16.100Z,35.40
2022-07-26T11:23:48.717Z,35.70
2022-07-26T11:26:23.293Z,35.60
2022-07-26T11:28:58.175Z,35.20
2022-07-26T11:31:50.347Z,34.90
2022-07-26T11:34:29.768Z,35.00
2022-07-26T11:37:04.689Z,34.90
2022-07-26T11:39:36.761Z,34.60
2022-07-26T11:42:12.040Z,34.40
2022-07-26T11:44:45.699Z,34.40
2022-07-26T11:47:20.234Z,34.60
2022-07-26T11:50:12.479Z,34.40
2022-07-26T11:52:44.168Z,34.30
2022-07-26T11:55:29.238Z,34.20
2022-07-26T11:58:06.647Z,34.20
2022-07-26T12:00:38.714Z,34.50
2022-07-26T12:03:10.573Z,34.30
2022-07-26T12:05:42.845Z,34.30
2022-07-26T12:08:14.831Z,34.30
2022-07-26T12:10:54.483Z,34.10
2022-07-26T12:13:26.471Z,34.00
2022-07-26T12:15:58.515Z,34.10
2022-07-26T12:18:31.652Z,34.20
2022-07-26T12:21:07.862Z,34.30
2022-07-26T12:23:46.430Z,34.70
2022-07-26T12:26:23.339Z,35.10
2022-07-26T12:28:56.454Z,34.90
2022-07-26T12:31:34.115Z,34.50
2022-07-26T12:34:06.986Z,34.30
2022-07-26T12:36:38.987Z,34.60
2022-07-26T12:39:22.157Z,34.50
2022-07-26T12:41:54.100Z,34.70
2022-07-26T12:44:26.058Z,34.40
2022-07-26T12:46:57.936Z,34.40
2022-07-26T12:49:30.203Z,34.40
2022-07-26T12:52:02.167Z,34.80
2022-07-26T12:54:34.057Z,34.70
2022-07-26T12:57:06.015Z,34.60
2022-07-26T12:59:42.946Z,34.40
2022-07-26T13:02:18.435Z,34.20
2022-07-26T13:04:50.777Z,34.30
2022-07-26T13:07:22.790Z,34.50
2022-07-26T13:10:14.226Z,34.80
2022-07-26T13:12:46.648Z,35.20
2022-07-26T13:15:18.589Z,35.60
2022-07-26T13:17:51.671Z,35.80
2022-07-26T13:20:23.644Z,35.70
2022-07-26T13:22:55.518Z,35.40
2022-07-26T13:25:29.016Z,34.90
2022-07-26T13:28:03.811Z,34.60
2022-07-26T13:30:41.038Z,34.60
2022-07-26T13:33:13.109Z,34.90
2022-07-26T13:35:45.009Z,34.90
2022-07-26T13:38:19.158Z,34.70
2022-07-26T13:40:51.078Z,34.60
2022-07-26T13:43:22.981Z,34.90
2022-07-26T13:45:55.019Z,35.20
2022-07-26T13:48:27.127Z,35.50
2022-07-26T13:50:58.971Z,35.60
2022-07-26T13:53:30.820Z,35.30
2022-07-26T13:56:03.359Z,34.90
2022-07-26T13:58:35.993Z,34.80
2022-07-26T14:01:08.050Z,34.90
2022-07-26T14:03:40.051Z,35.00
2022-07-26T14:06:11.986Z,34.80
2022-07-26T14:08:43.848Z,34.80
2022-07-26T14:11:15.757Z,34.80
2022-07-26T14:13:47.916Z,34.70
2022-07-26T14:16:20.071Z,34.80
2022-07-26T14:18:54.913Z,34.50
2022-07-26T14:21:38.589Z,34.30
2022-07-26T14:24:20.874Z,34.40
2022-07-26T14:26:56.850Z,34.50
2022-07-26T14:29:30.369Z,34.60
2022-07-26T14:32:03.225Z,34.80
2022-07-26T14:34:35.221Z,35.00
2022-07-26T14:37:08.467Z,35.00
2022-07-26T14:39:59.273Z,34.90
2022-07-26T14:42:31.214Z,34.60
2022-07-26T14:45:03.446Z,34.50
2022-07-26T14:47:35.614Z,34.70
2022-07-26T14:50:08.872Z,34.40
2022-07-26T14:52:46.227Z,34.00
2022-07-26T14:55:23.114Z,33.70
2022-07-26T14:57:56.801Z,33.70
2022-07-26T15:00:28.765Z,33.60
2022-07-26T15:03:00.644Z,33.60
2022-07-26T15:05:32.541Z,33.70
2022-07-26T15:08:06.293Z,33.90
2022-07-26T15:10:38.326Z,33.70
2022-07-26T15:13:10.465Z,33.80
2022-07-26T15:15:42.749Z,33.80
2022-07-26T15:18:14.707Z,33.90
2022-07-26T15:20:46.756Z,33.90
2022-07-26T15:23:19.746Z,34.00
2022-07-26T15:25:51.837Z,33.80
2022-07-26T15:28:23.752Z,34.00
2022-07-26T15:30:55.924Z,34.00
2022-07-26T15:33:27.845Z,34.00
2022-07-26T15:36:03.998Z,34.20
2022-07-26T15:38:37.703Z,34.10
2022-07-26T15:41:09.599Z,33.80
2022-07-26T15:43:48.499Z,33.90
2022-07-26T15:46:20.943Z,33.70
2022-07-26T15:48:54.950Z,33.80
2022-07-26T15:51:27.132Z,33.70
2022-07-26T15:53:59.043Z,33.80
2022-07-26T15:56:30.944Z,33.80
2022-07-26T15:59:04.212Z,33.80
2022-07-26T16:01:36.891Z,33.70
2022-07-26T16:04:09.404Z,33.70
2022-07-26T16:06:41.800Z,33.60
2022-07-26T16:09:18.642Z,33.50
2022-07-26T16:11:51.324Z,33.40
2022-07-26T16:14:23.273Z,33.10
2022-07-26T16:16:57.279Z,33.10
2022-07-26T16:19:29.234Z,33.10
2022-07-26T16:22:02.411Z,32.90
2022-07-26T16:24:35.425Z,32.80
2022-07-26T16:27:07.332Z,32.80
2022-07-26T16:29:39.259Z,32.70
2022-07-26T16:32:12.139Z,32.80
2022-07-26T16:34:44.078Z,32.80
2022-07-26T16:37:15.956Z,32.80
2022-07-26T16:39:48.231Z,32.70
2022-07-26T16:42:20.077Z,32.70
2022-07-26T16:44:51.935Z,32.60
2022-07-26T16:47:23.856Z,32.60
2022-07-26T16:49:55.859Z,32.50
2022-07-26T16:52:27.788Z,32.30
2022-07-26T16:55:00.213Z,32.00
2022-07-26T16:57:32.197Z,31.90
2022-07-26T17:00:10.491Z,31.90
2022-07-26T17:02:42.466Z,31.90
2022-07-26T17:05:14.991Z,32.00
2022-07-26T17:07:46.922Z,31.90
2022-07-26T17:10:18.857Z,31.80
2022-07-26T17:12:50.776Z,31.70
2022-07-26T17:15:22.703Z,31.60
2022-07-26T17:17:54.572Z,31.60
2022-07-26T17:20:26.806Z,31.60
2022-07-26T17:22:58.727Z,31.70
2022-07-26T17:25:30.712Z,31.70
2022-07-26T17:28:02.703Z,31.60
2022-07-26T17:30:34.578Z,31.60
2022-07-26T17:33:06.577Z,31.60
2022-07-26T17:35:39.862Z,31.60
2022-07-26T17:38:11.766Z,31.50
2022-07-26T17:40:43.846Z,31.40
2022-07-26T17:43:15.875Z,31.40
2022-07-26T17:45:47.882Z,31.40
2022-07-26T17:48:19.888Z,31.30
2022-07-26T17:50:51.796Z,31.30
2022-07-26T17:53:30.440Z,31.20
2022-07-26T17:56:07.211Z,31.10
2022-07-26T17:58:39.250Z,30.90
2022-07-26T18:01:11.493Z,31.00
2022-07-26T18:03:43.395Z,30.90
2022-07-26T18:06:15.656Z,31.00
2022-07-26T18:08:47.562Z,30.90
2022-07-26T18:11:19.485Z,30.70
2022-07-26T18:13:51.362Z,30.70
2022-07-26T18:16:23.409Z,30.60
2022-07-26T18:18:55.659Z,30.60
2022-07-26T18:21:28.010Z,30.60
2022-07-26T18:24:16.224Z,30.60
2022-07-26T18:26:48.547Z,30.60
2022-07-26T18:29:20.619Z,30.60
2022-07-26T18:31:52.698Z,30.60
2022-07-26T18:34:24.658Z,30.60
2022-07-26T18:36:56.620Z,30.50
2022-07-26T18:39:32.611Z,30.50
2022-07-26T18:42:05.095Z,30.50
2022-07-26T18:44:40.048Z,30.40
2022-07-26T18:47:11.892Z,30.40
2022-07-26T18:49:43.901Z,30.30
2022-07-26T18:52:15.875Z,30.30
2022-07-26T18:54:48.270Z,30.20
2022-07-26T18:57:20.116Z,30.20
2022-07-26T18:59:52.045Z,30.10
2022-07-26T19:02:23.944Z,30.10
2022-07-26T19:04:55.824Z,30.20
2022-07-26T19:07:27.728Z,30.20
2022-07-26T19:10:00.196Z,30.10
2022-07-26T19:12:32.198Z,30.10
2022-07-26T19:15:05.373Z,30.10
2022-07-26T19:17:38.088Z,30.00
2022-07-26T19:20:11.021Z,29.90
2022-07-26T19:22:44.624Z,29.90
2022-07-26T19:25:18.084Z,29.90
2022-07-26T19:27:49.884Z,29.80
2022-07-26T19:30:21.864Z,29.90
2022-07-26T19:32:53.737Z,29.90
2022-07-26T19:35:25.673Z,29.90
2022-07-26T19:37:57.731Z,29.90
2022-07-26T19:40:30.764Z,29.90
2022-07-26T19:43:02.713Z,29.90
2022-07-26T19:45:34.743Z,29.80
2022-07-26T19:48:07.057Z,29.80
2022-07-26T19:50:38.982Z,29.70
2022-07-26T19:53:10.985Z,29.60
2022-07-26T19:55:42.925Z,29.60
2022-07-26T19:58:14.947Z,29.60
2022-07-26T20:00:47.305Z,29.60
2022-07-26T20:03:19.219Z,29.70
2022-07-26T20:05:51.164Z,29.60
2022-07-26T20:08:23.075Z,29.60
2022-07-26T20:10:55.032Z,29.50
2022-07-26T20:13:27.027Z,29.40
2022-07-26T20:15:59.012Z,29.30
2022-07-26T20:18:31.064Z,29.30
2022-07-26T20:21:03.017Z,29.40
2022-07-26T20:23:34.943Z,29.40
2022-07-26T20:26:06.933Z,29.40
2022-07-26T20:28:38.893Z,29.40
2022-07-26T20:31:10.877Z,29.40
2022-07-26T20:33:42.896Z,29.40
2022-07-26T20:36:15.014Z,29.40
2022-07-26T20:38:51.340Z,29.50
2022-07-26T20:41:23.589Z,29.50
2022-07-26T20:43:56.852Z,29.50
2022-07-26T20:46:28.942Z,29.50
2022-07-26T20:49:00.920Z,29.50
2022-07-26T20:51:33.234Z,29.50
2022-07-26T20:54:05.845Z,29.50
2022-07-26T20:56:38.813Z,29.50
2022-07-26T20:59:10.943Z,29.50
2022-07-26T21:01:44.005Z,29.50
2022-07-26T21:04:16.156Z,29.40
2022-07-26T21:06:48.420Z,29.40
2022-07-26T21:09:20.578Z,29.40
2022-07-26T21:11:53.221Z,29.40
2022-07-26T21:14:25.201Z,29.40
2022-07-26T21:16:57.165Z,29.50
2022-07-26T21:19:29.164Z,29.50
2022-07-26T21:22:01.152Z,29.60
2022-07-26T21:24:34.948Z,29.50
2022-07-26T21:27:07.259Z,29.50
2022-07-26T21:29:39.618Z,29.50
2022-07-26T21:32:11.599Z,29.40
2022-07-26T21:34:43.573Z,29.40
2022-07-26T21:37:15.790Z,29.30
2022-07-26T21:39:47.676Z,29.40
2022-07-26T21:42:19.684Z,29.40
2022-07-26T21:44:51.579Z,29.40
2022-07-26T21:47:23.488Z,29.40
2022-07-26T21:49:55.473Z,29.40
2022-07-26T21:52:27.376Z,29.30
2022-07-26T21:54:59.319Z,29.20
2022-07-26T21:57:31.228Z,29.20
2022-07-26T22:00:05.855Z,29.20
2022-07-26T22:02:38.252Z,29.30
2022-07-26T22:05:28.945Z,29.20
2022-07-26T22:08:01.948Z,29.20
2022-07-26T22:10:35.224Z,29.10
2022-07-26T22:13:16.379Z,29.10
2022-07-26T22:15:48.327Z,29.10
2022-07-26T22:18:20.447Z,29.10
2022-07-26T22:20:52.736Z,29.20
2022-07-26T22:23:30.163Z,29.20
2022-07-26T22:26:03.655Z,29.20
2022-07-26T22:28:35.703Z,29.20
2022-07-26T22:31:07.647Z,29.20
2022-07-26T22:33:39.596Z,29.20
2022-07-26T22:36:11.459Z,29.20
2022-07-26T22:38:45.163Z,29.20
2022-07-26T22:41:17.155Z,29.20
2022-07-26T22:43:50.481Z,29.20
2022-07-26T22:46:27.801Z,29.20
2022-07-26T22:49:01.428Z,29.20
2022-07-26T22:51:33.387Z,29.10
2022-07-26T22:54:08.432Z,29.10
2022-07-26T22:56:42.031Z,29.10
2022-07-26T22:59:14.322Z,29.00
2022-07-26T23:01:46.526Z,29.00
2022-07-26T23:04:18.527Z,29.00
2022-07-26T23:06:51.091Z,29.10
2022-07-26T23:09:26.717Z,29.20
2022-07-26T23:11:59.628Z,29.10
2022-07-26T23:14:31.599Z,29.00
2022-07-26T23:17:03.685Z,29.00
2022-07-26T23:19:35.598Z,29.00
2022-07-26T23:22:07.539Z,29.10
2022-07-26T23:24:39.437Z,29.00
2022-07-26T23:27:19.854Z,29.00
2022-07-26T23:29:52.201Z,29.00
2022-07-26T23:32:24.048Z,28.90
2022-07-26T23:34:55.987Z,29.00
2022-07-26T23:37:27.845Z,29.00
2022-07-26T23:39:59.780Z,29.00
2022-07-26T23:42:31.655Z,29.10
2022-07-26T23:45:04.635Z,29.00
2022-07-26T23:47:36.685Z,29.00
2022-07-26T23:50:08.965Z,29.00
2022-07-26T23:52:40.869Z,29.10
2022-07-26T23:55:12.794Z,29.10
2022-07-26T23:57:44.766Z,29.10
